Time;durP1;ratioP1;P1;durP2;ratioP2;P2;SDS_P1;SDS_P2;PMS_P1;PMS_P2;Temp;Humidity;BMP_temperature;BMP_pressure;BME280_temperature;BME280_humidity;BME280_pressure;Samples;Min_cycle;Max_cycle;Signal;HPM_P1;HPM_P2
2023/02/10 00:01:30;;;;;;;38.70;23.47;;;-2.80;99.90;;;;;;5092826;28;20205;-60
2023/02/10 00:03:57;;;;;;;38.00;23.43;;;-2.70;99.90;;;;;;5092673;28;20227;-60
2023/02/10 00:06:28;;;;;;;38.47;23.23;;;-2.60;99.90;;;;;;5092230;28;20316;-60
2023/02/10 00:08:57;;;;;;;39.83;22.97;;;-2.40;99.90;;;;;;5092366;28;20257;-60
2023/02/10 00:11:56;;;;;;;38.13;23.67;;;-2.40;99.90;;;;;;5092161;28;20218;-60
2023/02/10 00:14:12;;;;;;;42.37;23.10;;;-2.40;99.90;;;;;;5093418;28;20210;-60
2023/02/10 00:16:39;;;;;;;36.67;22.57;;;-2.50;99.90;;;;;;5092271;28;20227;-60
2023/02/10 00:19:06;;;;;;;40.30;22.30;;;-2.50;99.90;;;;;;5092575;28;20224;-60
2023/02/10 00:21:34;;;;;;;39.60;22.67;;;-2.60;99.90;;;;;;5092190;28;20580;-60
2023/02/10 00:24:01;;;;;;;38.33;22.90;;;-2.70;99.90;;;;;;5092686;28;20257;-60
2023/02/10 00:26:27;;;;;;;39.77;22.03;;;-2.70;99.90;;;;;;5091719;28;20251;-61
2023/02/10 00:28:54;;;;;;;34.90;21.10;;;-2.60;99.90;;;;;;5092572;28;20208;-60
2023/02/10 00:31:21;;;;;;;36.73;21.00;;;-2.60;99.90;;;;;;5092289;28;20208;-60
2023/02/10 00:33:49;;;;;;;34.37;21.60;;;-2.50;99.90;;;;;;5092648;28;20556;-60
2023/02/10 00:36:16;;;;;;;33.73;20.53;;;-2.60;99.90;;;;;;5091709;28;20254;-60
2023/02/10 00:38:44;;;;;;;35.27;21.03;;;-2.70;99.90;;;;;;5093052;28;20235;-59
2023/02/10 00:41:15;;;;;;;37.27;21.43;;;-2.70;99.90;;;;;;5092353;28;20204;-60
2023/02/10 00:43:44;;;;;;;38.07;21.00;;;-2.70;99.90;;;;;;5091902;28;20196;-60
2023/02/10 00:46:11;;;;;;;37.67;21.30;;;-2.80;99.90;;;;;;5091189;28;20734;-60
2023/02/10 00:48:38;;;;;;;36.17;21.13;;;-2.70;99.90;;;;;;5092173;28;20212;-59
2023/02/10 00:51:05;;;;;;;35.13;21.23;;;-2.70;99.90;;;;;;5091509;28;20684;-59
2023/02/10 00:53:32;;;;;;;35.90;21.90;;;-2.60;99.90;;;;;;5091368;28;20219;-59
2023/02/10 00:56:00;;;;;;;38.80;22.13;;;-2.70;99.90;;;;;;5090610;28;20224;-60
2023/02/10 00:58:28;;;;;;;32.37;20.37;;;-2.60;99.90;;;;;;5091499;28;20281;-60
2023/02/10 01:00:55;;;;;;;33.53;20.23;;;-2.50;99.90;;;;;;5091381;28;20208;-59
2023/02/10 01:03:23;;;;;;;37.67;20.97;;;-2.50;99.90;;;;;;5091421;28;20208;-59
2023/02/10 01:05:49;;;;;;;35.47;21.77;;;-2.50;99.90;;;;;;5091135;28;20240;-60
2023/02/10 01:08:17;;;;;;;35.53;20.63;;;-2.50;99.90;;;;;;5092527;28;20204;-60
2023/02/10 01:10:44;;;;;;;37.17;20.90;;;-2.50;99.90;;;;;;5092990;28;20208;-61
2023/02/10 01:13:15;;;;;;;34.83;19.60;;;-2.50;99.90;;;;;;5092220;28;20595;-60
2023/02/10 01:15:46;;;;;;;33.20;20.07;;;-2.30;99.90;;;;;;5090879;28;20208;-58
2023/02/10 01:18:13;;;;;;;36.47;21.17;;;-2.30;99.90;;;;;;5091702;28;20204;-60
2023/02/10 01:20:40;;;;;;;39.70;21.63;;;-2.30;99.90;;;;;;5091746;28;20211;-60
2023/02/10 01:23:08;;;;;;;32.37;19.87;;;-2.30;99.90;;;;;;5091891;28;20211;-59
2023/02/10 01:25:35;;;;;;;35.97;20.60;;;-2.30;99.90;;;;;;5091243;28;20207;-61
2023/02/10 01:28:01;;;;;;;36.87;21.07;;;-2.40;99.90;;;;;;5091470;28;20223;-61
2023/02/10 01:30:29;;;;;;;36.77;20.60;;;-2.50;99.90;;;;;;5091180;28;20203;-61
2023/02/10 01:32:59;;;;;;;30.20;19.07;;;-2.40;99.90;;;;;;5092147;28;20208;-60
2023/02/10 01:35:26;;;;;;;35.00;19.70;;;-2.00;99.90;;;;;;5091162;28;20283;-61
2023/02/10 01:37:54;;;;;;;34.40;20.80;;;-2.50;99.90;;;;;;5091304;28;20697;-60
2023/02/10 01:40:21;;;;;;;35.37;20.93;;;-2.50;99.90;;;;;;5091399;28;20231;-60
2023/02/10 01:42:48;;;;;;;31.27;19.87;;;-2.50;99.90;;;;;;5090919;28;20488;-60
2023/02/10 01:45:21;;;;;;;34.13;20.00;;;-2.50;99.90;;;;;;5090979;28;20626;-60
2023/02/10 01:47:52;;;;;;;33.37;20.03;;;-2.50;99.90;;;;;;5091117;28;20249;-60
2023/02/10 01:50:21;;;;;;;34.30;21.63;;;-2.50;99.90;;;;;;5090787;28;20204;-60
2023/02/10 01:52:49;;;;;;;39.20;21.23;;;-2.50;99.90;;;;;;5090803;28;20279;-59
2023/02/10 01:55:20;;;;;;;37.87;20.13;;;-2.40;99.90;;;;;;5091344;28;20200;-59
2023/02/10 01:57:48;;;;;;;33.97;20.70;;;-2.40;99.90;;;;;;5091847;28;20232;-59
2023/02/10 02:00:15;;;;;;;34.30;21.27;;;-2.40;99.90;;;;;;5091730;28;20286;-61
2023/02/10 02:02:44;;;;;;;34.23;20.67;;;-2.40;99.90;;;;;;5091620;28;20234;-59
2023/02/10 02:05:30;;;;;;;37.10;20.87;;;-2.40;99.90;;;;;;5090633;28;20205;-59
2023/02/10 02:08:00;;;;;;;32.13;20.27;;;-2.40;99.90;;;;;;5094250;28;20386;-59
2023/02/10 02:10:41;;;;;;;36.00;20.73;;;-2.40;99.90;;;;;;5094615;28;20269;-59
2023/02/10 02:13:15;;;;;;;35.03;20.53;;;-2.30;99.90;;;;;;5094476;28;20262;-60
2023/02/10 02:15:48;;;;;;;32.10;19.70;;;-2.40;99.90;;;;;;5094951;28;20213;-60
2023/02/10 02:18:21;;;;;;;35.43;20.63;;;-2.40;99.90;;;;;;5094911;28;20711;-60
2023/02/10 02:21:19;;;;;;;34.40;20.83;;;-2.40;99.90;;;;;;5095003;28;20253;-61
2023/02/10 02:24:08;;;;;;;34.30;20.87;;;-2.40;99.90;;;;;;5095057;28;20630;-61
2023/02/10 02:26:48;;;;;;;33.37;20.60;;;-2.30;99.90;;;;;;5094898;28;20228;-60
2023/02/10 02:29:31;;;;;;;35.17;20.40;;;-2.30;99.90;;;;;;5094963;28;20204;-60
2023/02/10 02:32:03;;;;;;;29.13;19.57;;;-2.20;99.90;;;;;;5094651;28;20551;-60
2023/02/10 02:34:38;;;;;;;31.93;20.80;;;-2.20;99.90;;;;;;5094384;28;20204;-60
2023/02/10 02:37:12;;;;;;;31.60;20.53;;;-2.20;99.90;;;;;;5094264;28;20327;-60
2023/02/10 02:39:39;;;;;;;32.07;20.07;;;-2.20;99.90;;;;;;5093982;28;20224;-59
2023/02/10 02:42:24;;;;;;;34.13;20.43;;;-2.20;99.90;;;;;;5093986;28;20212;-60
2023/02/10 02:44:54;;;;;;;33.30;20.57;;;-2.20;99.90;;;;;;5094279;28;20211;-59
2023/02/10 02:47:46;;;;;;;32.23;19.90;;;-2.20;99.90;;;;;;5093859;28;20265;-59
2023/02/10 02:50:23;;;;;;;31.73;19.73;;;-2.30;99.90;;;;;;5093846;28;20213;-59
2023/02/10 02:53:03;;;;;;;31.70;19.20;;;-2.30;99.90;;;;;;5093783;28;20208;-61
2023/02/10 02:55:39;;;;;;;32.87;19.53;;;-2.40;99.90;;;;;;5093351;28;20747;-60
2023/02/10 02:58:16;;;;;;;33.30;20.57;;;-2.50;99.90;;;;;;5093821;28;20212;-60
2023/02/10 03:00:44;;;;;;;32.80;19.93;;;-2.60;99.90;;;;;;5093584;28;20224;-58
2023/02/10 03:05:59;;;;;;;30.70;18.93;;;-2.60;99.90;;;;;;5093309;28;20227;-58
2023/02/10 03:08:26;;;;;;;31.67;19.07;;;-2.60;99.90;;;;;;5093461;28;20650;-59
2023/02/10 03:10:53;;;;;;;33.97;19.67;;;-2.50;99.90;;;;;;5093366;28;20201;-59
2023/02/10 03:13:19;;;;;;;33.83;20.00;;;-2.50;99.90;;;;;;5093147;28;20208;-59
2023/02/10 03:15:46;;;;;;;40.17;21.53;;;-2.60;99.90;;;;;;5092745;28;20228;-59
2023/02/10 03:18:14;;;;;;;42.00;21.77;;;-2.70;99.90;;;;;;5093352;28;20208;-58
2023/02/10 03:20:41;;;;;;;43.20;22.90;;;-2.70;99.90;;;;;;5093302;28;20228;-59
2023/02/10 03:23:08;;;;;;;36.47;20.80;;;-2.70;99.90;;;;;;5093240;28;20204;-59
2023/02/10 03:25:35;;;;;;;31.97;19.27;;;-2.60;99.90;;;;;;5092903;28;20212;-61
2023/02/10 03:28:02;;;;;;;31.90;19.93;;;-2.60;99.90;;;;;;5092937;28;20208;-61
2023/02/10 03:30:28;;;;;;;32.77;19.83;;;-2.60;99.90;;;;;;5092912;28;20212;-60
2023/02/10 03:32:56;;;;;;;30.00;18.93;;;-2.60;99.90;;;;;;5093223;28;20212;-61
2023/02/10 03:35:24;;;;;;;31.90;19.63;;;-2.70;99.90;;;;;;5092698;28;20648;-61
2023/02/10 03:37:51;;;;;;;33.47;20.93;;;-2.70;99.90;;;;;;5093468;28;20725;-61
2023/02/10 03:40:18;;;;;;;32.43;20.20;;;-2.60;99.90;;;;;;5092797;28;20280;-61
2023/02/10 03:42:44;;;;;;;31.53;20.20;;;-2.70;99.90;;;;;;5092957;28;20626;-61
2023/02/10 03:45:11;;;;;;;30.77;18.13;;;-2.70;99.90;;;;;;5092627;28;20207;-61
2023/02/10 03:47:38;;;;;;;32.40;19.37;;;-2.70;99.90;;;;;;5092783;28;20231;-61
2023/02/10 03:50:05;;;;;;;33.67;19.70;;;-2.80;99.90;;;;;;5092595;28;20664;-61
2023/02/10 03:52:33;;;;;;;34.23;20.00;;;-2.90;99.90;;;;;;5092660;28;20209;-61
2023/02/10 03:54:59;;;;;;;33.23;20.57;;;-2.80;99.90;;;;;;5092526;28;20257;-60
2023/02/10 03:57:26;;;;;;;32.73;20.30;;;-2.70;99.90;;;;;;5092583;28;20235;-60
2023/02/10 03:59:53;;;;;;;37.17;20.40;;;-2.70;99.90;;;;;;5092502;28;20224;-62
2023/02/10 04:02:20;;;;;;;31.07;18.97;;;-2.70;99.90;;;;;;5092438;28;20602;-60
2023/02/10 04:04:47;;;;;;;30.93;19.97;;;-2.70;99.90;;;;;;5092129;28;20721;-59
2023/02/10 04:07:13;;;;;;;34.60;19.73;;;-2.80;99.90;;;;;;5092052;28;20228;-59
2023/02/10 04:09:41;;;;;;;32.23;19.77;;;-2.80;99.90;;;;;;5092165;28;20200;-61
2023/02/10 04:12:08;;;;;;;32.00;19.93;;;-2.80;99.90;;;;;;5092270;28;20557;-61
2023/02/10 04:14:35;;;;;;;32.60;19.97;;;-2.70;99.90;;;;;;5092101;28;20207;-61
2023/02/10 04:17:02;;;;;;;32.77;19.70;;;-2.70;99.90;;;;;;5091641;28;20632;-61
2023/02/10 04:19:28;;;;;;;32.80;20.00;;;-2.60;99.90;;;;;;5091619;28;20652;-61
2023/02/10 04:21:55;;;;;;;34.10;20.00;;;-2.50;99.90;;;;;;5091954;28;20243;-61
2023/02/10 04:24:22;;;;;;;37.03;20.63;;;-2.50;99.90;;;;;;5091761;28;20273;-61
2023/02/10 04:26:50;;;;;;;32.97;20.97;;;-2.60;99.90;;;;;;5091894;28;20224;-61
2023/02/10 04:29:16;;;;;;;31.73;19.80;;;-2.50;99.90;;;;;;5091175;28;20719;-61
2023/02/10 04:31:43;;;;;;;35.77;19.83;;;-2.50;99.90;;;;;;5091776;28;20211;-61
2023/02/10 04:34:10;;;;;;;30.63;18.77;;;-2.60;99.90;;;;;;5091815;28;20228;-59
2023/02/10 04:36:37;;;;;;;33.07;20.10;;;-2.70;99.90;;;;;;5091639;28;20242;-61
2023/02/10 04:39:03;;;;;;;32.13;20.60;;;-2.70;99.90;;;;;;5091850;28;20207;-61
2023/02/10 04:41:30;;;;;;;31.33;20.00;;;-2.50;99.90;;;;;;5091563;28;20227;-61
2023/02/10 04:43:58;;;;;;;33.17;20.30;;;-2.80;99.90;;;;;;5091666;28;20215;-61
2023/02/10 04:46:25;;;;;;;36.13;20.70;;;-2.80;99.90;;;;;;5091559;28;20227;-60
2023/02/10 04:48:52;;;;;;;35.77;20.03;;;-3.00;99.90;;;;;;5091601;28;20330;-61
2023/02/10 04:51:18;;;;;;;34.87;20.10;;;-3.00;99.90;;;;;;5091535;28;20200;-60
2023/02/10 04:53:47;;;;;;;35.93;20.63;;;-3.00;99.90;;;;;;5091700;28;20200;-60
2023/02/10 04:56:14;;;;;;;31.67;20.13;;;-3.00;99.90;;;;;;5091090;28;20255;-60
2023/02/10 04:58:42;;;;;;;32.30;19.87;;;-3.20;99.90;;;;;;5091516;28;20207;-59
2023/02/10 05:01:10;;;;;;;34.93;20.93;;;-3.20;99.90;;;;;;5091675;28;20220;-60
2023/02/10 05:03:37;;;;;;;34.17;19.87;;;-3.20;99.90;;;;;;5091405;28;20214;-61
2023/02/10 05:06:08;;;;;;;35.87;20.53;;;-3.10;99.90;;;;;;5090772;28;20314;-61
2023/02/10 05:08:38;;;;;;;36.03;20.97;;;-3.20;99.90;;;;;;5091508;28;20208;-58
2023/02/10 05:11:05;;;;;;;33.63;20.23;;;-3.30;99.90;;;;;;5091276;28;20265;-62
2023/02/10 05:13:31;;;;;;;37.13;20.63;;;-3.30;99.90;;;;;;5091238;28;20208;-60
2023/02/10 05:15:58;;;;;;;35.87;20.03;;;-3.30;99.90;;;;;;5090987;28;20742;-62
2023/02/10 05:18:26;;;;;;;34.13;20.70;;;-3.30;99.90;;;;;;5091169;28;20269;-61
2023/02/10 05:20:53;;;;;;;34.73;20.33;;;-3.30;99.90;;;;;;5091463;28;20224;-60
2023/02/10 05:23:19;;;;;;;33.53;20.40;;;-3.30;99.90;;;;;;5091305;28;20204;-60
2023/02/10 05:25:47;;;;;;;35.47;20.53;;;-3.30;99.90;;;;;;5090936;28;20332;-60
2023/02/10 05:28:14;;;;;;;34.97;19.80;;;-3.30;99.90;;;;;;5091328;28;20218;-59
2023/02/10 05:30:41;;;;;;;33.60;20.53;;;-3.50;99.90;;;;;;5091338;28;20204;-60
2023/02/10 05:33:08;;;;;;;32.10;19.23;;;-3.50;99.90;;;;;;5091103;28;20620;-60
2023/02/10 05:35:36;;;;;;;36.50;21.07;;;-3.50;99.90;;;;;;5090851;28;20298;-60
2023/02/10 05:38:03;;;;;;;33.30;20.17;;;-3.40;99.90;;;;;;5091251;28;20583;-60
2023/02/10 05:40:30;;;;;;;39.13;21.47;;;-3.50;99.90;;;;;;5091615;28;20220;-60
2023/02/10 05:42:56;;;;;;;38.87;21.73;;;-3.40;99.90;;;;;;5095155;28;20241;-60
2023/02/10 05:45:23;;;;;;;35.33;21.77;;;-3.30;99.90;;;;;;5094846;28;20222;-62
2023/02/10 05:47:51;;;;;;;33.27;19.97;;;-3.30;99.90;;;;;;5095328;28;20212;-60
2023/02/10 05:50:18;;;;;;;42.00;21.80;;;-3.20;99.90;;;;;;5095094;28;20551;-59
2023/02/10 05:52:46;;;;;;;37.23;21.97;;;-3.20;99.90;;;;;;5095110;28;20270;-59
2023/02/10 05:55:13;;;;;;;38.67;21.73;;;-3.20;99.90;;;;;;5094599;28;20204;-60
2023/02/10 05:57:40;;;;;;;35.47;20.97;;;-3.10;99.90;;;;;;5094838;28;20235;-60
2023/02/10 06:00:09;;;;;;;32.77;21.00;;;-3.10;99.90;;;;;;5094525;28;20220;-61
2023/02/10 06:02:35;;;;;;;38.33;20.97;;;-3.10;99.90;;;;;;5095101;28;20576;-61
2023/02/10 06:05:02;;;;;;;31.20;19.93;;;-3.10;99.90;;;;;;5094778;28;20204;-60
2023/02/10 06:07:29;;;;;;;35.93;21.57;;;-3.10;99.90;;;;;;5094569;28;20228;-61
2023/02/10 06:09:57;;;;;;;35.50;21.00;;;-3.10;99.90;;;;;;5094472;28;20573;-60
2023/02/10 06:12:23;;;;;;;33.30;21.57;;;-3.00;99.90;;;;;;5094523;28;20285;-61
2023/02/10 06:14:50;;;;;;;39.27;21.37;;;-3.00;99.90;;;;;;5094427;28;20215;-60
2023/02/10 06:17:17;;;;;;;37.27;20.73;;;-3.00;99.90;;;;;;5094103;28;20684;-60
2023/02/10 06:19:44;;;;;;;36.83;22.53;;;-3.00;99.90;;;;;;5094654;28;20216;-60
2023/02/10 06:22:11;;;;;;;38.40;22.47;;;-3.00;99.90;;;;;;5094465;28;20231;-61
2023/02/10 06:24:38;;;;;;;37.77;21.93;;;-3.00;99.90;;;;;;5094348;28;20212;-61
2023/02/10 06:27:06;;;;;;;38.00;23.53;;;-2.90;99.90;;;;;;5094010;28;20279;-61
2023/02/10 06:29:33;;;;;;;38.87;21.53;;;-2.90;99.90;;;;;;5094484;28;20209;-61
2023/02/10 06:31:59;;;;;;;38.37;22.47;;;-2.90;99.90;;;;;;5094471;28;20610;-61
2023/02/10 06:34:26;;;;;;;37.97;21.70;;;-2.80;99.90;;;;;;5094288;28;20226;-61
2023/02/10 06:36:53;;;;;;;38.97;22.57;;;-2.80;99.90;;;;;;5094009;28;20232;-60
2023/02/10 06:39:20;;;;;;;34.87;22.37;;;-2.80;99.90;;;;;;5094147;28;20204;-61
2023/02/10 06:41:47;;;;;;;39.63;22.07;;;-2.80;99.90;;;;;;5093935;28;20240;-61
2023/02/10 06:44:15;;;;;;;38.27;22.80;;;-2.80;99.90;;;;;;5093911;28;20238;-61
2023/02/10 06:46:42;;;;;;;37.10;22.80;;;-2.70;99.90;;;;;;5093485;28;20586;-61
2023/02/10 06:49:08;;;;;;;37.70;22.70;;;-2.70;99.90;;;;;;5093888;28;20257;-61
2023/02/10 06:51:35;;;;;;;33.60;22.10;;;-2.70;99.90;;;;;;5093488;28;20660;-61
2023/02/10 06:54:02;;;;;;;34.50;21.93;;;-2.60;99.90;;;;;;5092975;28;20216;-60
2023/02/10 06:56:28;;;;;;;34.60;22.03;;;-2.50;99.90;;;;;;5093294;28;20644;-60
2023/02/10 06:58:55;;;;;;;41.93;23.27;;;-2.50;99.90;;;;;;5094138;28;20207;-62
2023/02/10 07:01:24;;;;;;;36.50;22.90;;;-2.50;99.90;;;;;;5094010;28;20289;-61
2023/02/10 07:03:50;;;;;;;37.63;22.00;;;-2.50;99.90;;;;;;5093994;28;20205;-62
2023/02/10 07:06:18;;;;;;;39.10;23.83;;;-2.50;99.90;;;;;;5093405;28;20232;-61
2023/02/10 07:08:45;;;;;;;37.93;22.00;;;-2.40;99.90;;;;;;5093698;28;20208;-60
2023/02/10 07:11:11;;;;;;;36.97;22.30;;;-2.40;99.90;;;;;;5093392;28;20205;-61
2023/02/10 07:13:38;;;;;;;38.30;22.63;;;-2.40;99.90;;;;;;5093512;28;20208;-60
2023/02/10 07:16:05;;;;;;;38.50;22.87;;;-2.40;99.90;;;;;;5093310;28;20243;-60
2023/02/10 07:18:33;;;;;;;33.07;21.47;;;-2.10;99.90;;;;;;5093088;28;20205;-58
2023/02/10 07:21:00;;;;;;;37.43;21.90;;;-1.60;99.90;;;;;;5093221;28;20231;-61
2023/02/10 07:23:27;;;;;;;34.80;21.40;;;-1.20;99.90;;;;;;5093277;28;20212;-60
2023/02/10 07:25:53;;;;;;;35.10;20.70;;;-1.00;99.90;;;;;;5093227;28;20247;-61
2023/02/10 07:28:20;;;;;;;35.17;21.13;;;-1.00;99.90;;;;;;5093395;28;20200;-60
2023/02/10 07:30:47;;;;;;;33.80;20.60;;;-1.20;99.90;;;;;;5093458;28;20204;-60
2023/02/10 07:33:13;;;;;;;37.37;21.10;;;-1.30;99.90;;;;;;5093471;28;20204;-60
2023/02/10 07:35:41;;;;;;;36.33;21.80;;;-1.40;99.90;;;;;;5092775;28;20207;-60
2023/02/10 07:38:08;;;;;;;36.07;21.50;;;-1.40;99.90;;;;;;5093101;28;20249;-61
2023/02/10 07:40:35;;;;;;;32.87;21.40;;;-1.40;99.90;;;;;;5093204;28;20224;-60
2023/02/10 07:43:01;;;;;;;34.83;21.57;;;-1.50;99.90;;;;;;5093024;28;20208;-62
2023/02/10 07:45:30;;;;;;;36.57;21.63;;;-1.40;99.90;;;;;;5092532;28;20708;-60
2023/02/10 07:47:57;;;;;;;36.03;21.73;;;-1.30;99.90;;;;;;5092662;28;20654;-60
2023/02/10 07:50:24;;;;;;;34.40;21.03;;;-1.20;99.90;;;;;;5092893;28;20661;-61
2023/02/10 07:52:52;;;;;;;39.20;24.90;;;-1.10;99.90;;;;;;5092715;28;20204;-58
2023/02/10 07:55:19;;;;;;;35.30;22.30;;;-1.00;99.90;;;;;;5092681;28;20219;-55
2023/02/10 07:57:46;;;;;;;37.13;22.53;;;-0.80;99.90;;;;;;5092797;28;20708;-58
2023/02/10 08:00:14;;;;;;;48.37;27.47;;;-0.70;99.90;;;;;;5092741;28;20588;-64
2023/02/10 08:02:41;;;;;;;39.30;23.00;;;-0.50;99.90;;;;;;5092398;28;20223;-58
2023/02/10 08:05:08;;;;;;;37.70;21.30;;;-0.30;99.90;;;;;;5091539;28;20223;-58
2023/02/10 08:07:36;;;;;;;33.20;21.30;;;-0.10;99.90;;;;;;5092274;28;20224;-58
2023/02/10 08:10:05;;;;;;;39.93;21.23;;;0.00;99.90;;;;;;5092376;28;20204;-61
2023/02/10 08:12:32;;;;;;;34.37;21.43;;;0.10;99.90;;;;;;5092408;28;20687;-57
2023/02/10 08:14:59;;;;;;;33.90;20.60;;;0.20;99.90;;;;;;5092381;28;20211;-59
2023/02/10 08:17:26;;;;;;;34.60;20.67;;;0.30;99.90;;;;;;5091757;28;20235;-59
2023/02/10 08:19:52;;;;;;;32.33;19.47;;;0.50;99.90;;;;;;5092104;28;20219;-59
2023/02/10 08:22:19;;;;;;;36.27;21.77;;;0.60;99.90;;;;;;5091961;28;20656;-58
2023/02/10 08:24:46;;;;;;;40.63;22.80;;;0.80;99.90;;;;;;5092458;28;20212;-57
2023/02/10 08:27:14;;;;;;;32.27;21.07;;;0.90;99.90;;;;;;5091791;28;20606;-57
2023/02/10 08:29:40;;;;;;;31.33;20.53;;;1.00;99.90;;;;;;5091739;28;20208;-58
2023/02/10 08:32:07;;;;;;;35.33;21.37;;;1.10;99.90;;;;;;5091868;28;20668;-57
2023/02/10 08:34:34;;;;;;;34.53;21.03;;;1.10;99.90;;;;;;5092108;28;20602;-56
2023/02/10 08:37:01;;;;;;;35.00;21.50;;;1.10;99.90;;;;;;5091828;28;20231;-58
2023/02/10 08:39:29;;;;;;;40.83;21.50;;;1.20;99.90;;;;;;5092120;28;20204;-57
2023/02/10 08:41:55;;;;;;;31.50;20.60;;;1.20;99.90;;;;;;5092065;28;20270;-58
2023/02/10 08:44:23;;;;;;;38.00;21.87;;;1.10;99.90;;;;;;5091427;28;20219;-57
2023/02/10 08:46:51;;;;;;;32.60;20.23;;;1.10;99.90;;;;;;5091302;28;20711;-56
2023/02/10 08:49:17;;;;;;;33.60;20.63;;;1.10;99.90;;;;;;5091864;28;20556;-57
2023/02/10 08:51:44;;;;;;;31.97;20.30;;;1.10;99.90;;;;;;5091602;28;20707;-59
2023/02/10 08:54:11;;;;;;;33.87;20.27;;;1.10;99.90;;;;;;5091538;28;20207;-56
2023/02/10 08:56:38;;;;;;;29.33;20.03;;;1.20;99.90;;;;;;5091292;28;20253;-58
2023/02/10 08:59:05;;;;;;;32.13;19.97;;;1.30;99.90;;;;;;5091448;28;20208;-56
2023/02/10 09:01:33;;;;;;;33.27;20.13;;;1.40;99.90;;;;;;5090938;28;20224;-57
2023/02/10 09:03:59;;;;;;;32.33;20.37;;;1.50;99.90;;;;;;5091430;28;20555;-57
2023/02/10 09:06:30;;;;;;;31.27;20.27;;;1.70;99.90;;;;;;5091209;28;20231;-58
2023/02/10 09:08:56;;;;;;;32.37;20.23;;;2.00;99.90;;;;;;5091147;28;20204;-58
2023/02/10 09:11:24;;;;;;;30.77;19.23;;;2.20;99.90;;;;;;5091290;28;20291;-58
2023/02/10 09:13:51;;;;;;;31.50;19.27;;;2.20;99.90;;;;;;5091311;28;20742;-57
2023/02/10 09:16:18;;;;;;;29.30;19.37;;;2.00;99.90;;;;;;5090487;28;20279;-56
2023/02/10 09:18:46;;;;;;;31.20;19.43;;;2.10;99.90;;;;;;5091196;28;20212;-57
2023/02/10 09:21:13;;;;;;;27.97;19.03;;;2.10;99.90;;;;;;5091000;28;20277;-57
2023/02/10 09:23:39;;;;;;;31.73;19.37;;;2.00;99.90;;;;;;5091030;28;20208;-57
2023/02/10 09:26:06;;;;;;;30.77;17.97;;;1.90;99.90;;;;;;5090406;28;20232;-57
2023/02/10 09:28:33;;;;;;;33.43;19.37;;;1.80;99.90;;;;;;5091014;28;20200;-55
2023/02/10 09:31:00;;;;;;;32.43;20.63;;;1.70;99.90;;;;;;5091819;28;20294;-56
2023/02/10 09:33:27;;;;;;;29.90;19.63;;;1.90;99.90;;;;;;5071730;28;20211;-57
2023/02/10 09:35:55;;;;;;;29.00;20.00;;;2.10;99.90;;;;;;5085353;28;20232;-56
2023/02/10 09:38:21;;;;;;;29.10;19.97;;;2.40;99.90;;;;;;5089905;28;20208;-56
2023/02/10 09:40:58;;;;;;;30.50;19.83;;;2.70;99.90;;;;;;5089703;28;20242;-58
2023/02/10 09:43:43;;;;;;;31.07;19.37;;;2.90;99.90;;;;;;5090349;28;20273;-56
2023/02/10 09:46:21;;;;;;;35.80;19.90;;;3.10;99.90;;;;;;5089962;28;20251;-59
2023/02/10 09:48:58;;;;;;;27.67;18.17;;;3.40;99.90;;;;;;5089656;28;20746;-61
2023/02/10 09:51:42;;;;;;;33.00;18.83;;;3.70;99.90;;;;;;5089477;28;20626;-62
2023/02/10 09:54:11;;;;;;;28.00;18.67;;;3.90;99.90;;;;;;5090258;28;20207;-62
2023/02/10 09:56:39;;;;;;;29.30;19.73;;;4.10;99.90;;;;;;5090139;28;20293;-63
2023/02/10 09:59:09;;;;;;;26.97;19.43;;;4.30;99.90;;;;;;5090176;28;20272;-62
2023/02/10 10:01:40;;;;;;;29.37;19.83;;;4.50;99.90;;;;;;5090223;28;20216;-61
2023/02/10 10:04:10;;;;;;;33.03;18.97;;;4.60;99.90;;;;;;5089597;28;20629;-65
2023/02/10 10:06:40;;;;;;;30.67;18.53;;;4.70;99.90;;;;;;5090288;28;20228;-60
2023/02/10 10:09:24;;;;;;;28.77;18.83;;;4.70;99.90;;;;;;5089984;28;20204;-61
2023/02/10 10:11:52;;;;;;;28.83;18.90;;;4.60;99.90;;;;;;5089966;28;20211;-63
2023/02/10 10:14:22;;;;;;;30.37;18.90;;;4.50;99.90;;;;;;5090002;28;20204;-61
2023/02/10 10:17:10;;;;;;;26.47;18.30;;;4.60;99.90;;;;;;5089668;28;20224;-60
2023/02/10 10:19:53;;;;;;;29.03;18.83;;;4.80;99.90;;;;;;5077000;28;20219;-60
2023/02/10 10:22:32;;;;;;;30.53;18.93;;;5.10;99.90;;;;;;5089874;28;20231;-59
2023/02/10 10:25:19;;;;;;;25.93;17.57;;;5.20;99.90;;;;;;5090053;28;20296;-61
2023/02/10 10:28:00;;;;;;;26.43;18.30;;;5.10;99.90;;;;;;5090771;28;20230;-59
2023/02/10 10:30:39;;;;;;;27.87;19.20;;;5.10;99.90;;;;;;5093598;28;20208;-59
2023/02/10 10:33:22;;;;;;;27.47;18.80;;;5.00;99.90;;;;;;5093122;28;20247;-60
2023/02/10 10:35:49;;;;;;;26.00;18.17;;;5.00;99.90;;;;;;5092920;28;20236;-61
2023/02/10 10:38:20;;;;;;;29.53;17.60;;;5.00;99.90;;;;;;5093418;28;20204;-60
2023/02/10 10:40:48;;;;;;;27.40;17.70;;;5.10;99.90;;;;;;5093117;28;20239;-61
2023/02/10 10:43:22;;;;;;;30.33;17.97;;;5.10;99.90;;;;;;5092955;28;20232;-58
2023/02/10 10:45:52;;;;;;;24.73;17.40;;;5.20;99.90;;;;;;5092457;28;20235;-61
2023/02/10 10:48:24;;;;;;;26.53;18.00;;;5.30;99.90;;;;;;5093580;28;20204;-60
2023/02/10 10:50:52;;;;;;;26.33;17.53;;;5.50;99.90;;;;;;5092955;28;20601;-60
2023/02/10 10:53:31;;;;;;;26.57;16.63;;;5.60;99.90;;;;;;5092461;28;20192;-59
2023/02/10 10:55:59;;;;;;;24.27;17.27;;;5.70;99.90;;;;;;5092349;28;20224;-59
2023/02/10 10:58:29;;;;;;;24.33;17.07;;;5.70;99.90;;;;;;5092901;28;20298;-60
2023/02/10 11:00:57;;;;;;;23.70;16.43;;;5.80;99.90;;;;;;5093445;28;20691;-60
2023/02/10 11:03:24;;;;;;;24.77;16.60;;;6.10;99.90;;;;;;5092696;28;20273;-59
2023/02/10 11:06:01;;;;;;;26.43;16.87;;;6.30;99.90;;;;;;5091718;28;20633;-60
2023/02/10 11:08:34;;;;;;;23.93;15.73;;;6.30;99.90;;;;;;5092949;28;20204;-59
2023/02/10 11:11:03;;;;;;;22.17;14.63;;;6.30;99.90;;;;;;5092724;28;20204;-59
2023/02/10 11:13:32;;;;;;;21.63;14.53;;;6.40;99.90;;;;;;5092930;28;20197;-60
2023/02/10 11:16:02;;;;;;;27.23;15.13;;;6.40;99.90;;;;;;5091999;28;20224;-59
2023/02/10 11:18:29;;;;;;;28.73;18.07;;;6.30;99.90;;;;;;5092046;28;20291;-61
2023/02/10 11:20:59;;;;;;;21.67;14.30;;;6.40;99.90;;;;;;5092304;28;20265;-59
2023/02/10 11:23:28;;;;;;;18.93;13.73;;;6.50;99.90;;;;;;5092257;28;20224;-60
2023/02/10 11:26:02;;;;;;;24.53;15.07;;;6.50;99.90;;;;;;5091896;28;20228;-59
2023/02/10 11:28:31;;;;;;;23.20;14.57;;;6.70;99.90;;;;;;5091901;28;20670;-60
2023/02/10 11:31:00;;;;;;;21.13;15.13;;;6.80;99.90;;;;;;5091868;28;20208;-59
2023/02/10 11:33:30;;;;;;;25.10;14.37;;;6.90;99.90;;;;;;5092130;28;20211;-58
2023/02/10 11:36:01;;;;;;;22.77;14.53;;;7.00;99.90;;;;;;5092710;28;20235;-64
2023/02/10 11:38:28;;;;;;;20.57;14.23;;;7.20;99.90;;;;;;5091644;28;20212;-61
2023/02/10 11:40:57;;;;;;;28.57;17.43;;;7.10;99.90;;;;;;5091771;28;20212;-59
2023/02/10 11:43:32;;;;;;;20.00;12.97;;;7.10;99.90;;;;;;5091726;28;20315;-62
2023/02/10 11:46:00;;;;;;;18.07;12.43;;;7.30;99.90;;;;;;5090698;28;20230;-62
2023/02/10 11:48:28;;;;;;;18.57;13.33;;;7.50;99.90;;;;;;5091193;28;20208;-60
2023/02/10 11:51:03;;;;;;;19.77;13.70;;;7.40;99.90;;;;;;5091975;28;20204;-60
2023/02/10 11:53:34;;;;;;;18.63;11.60;;;7.40;99.90;;;;;;5091613;28;20316;-60
2023/02/10 11:56:04;;;;;;;17.57;11.90;;;7.40;98.60;;;;;;5091732;28;20231;-65
2023/02/10 11:58:59;;;;;;;16.40;12.27;;;7.30;98.10;;;;;;5091378;28;20208;-62
2023/02/10 12:01:34;;;;;;;18.17;12.23;;;7.30;98.50;;;;;;5091598;28;20208;-62
2023/02/10 12:04:07;;;;;;;18.53;12.13;;;7.30;98.70;;;;;;5091500;28;20207;-61
2023/02/10 12:06:37;;;;;;;18.20;11.67;;;7.50;98.60;;;;;;5069263;28;20232;-62
2023/02/10 12:09:16;;;;;;;18.13;13.03;;;7.70;98.40;;;;;;5071345;28;20205;-61
2023/02/10 12:11:52;;;;;;;19.97;12.90;;;7.80;98.30;;;;;;5071321;28;20208;-60
2023/02/10 12:14:33;;;;;;;18.70;13.00;;;8.00;98.20;;;;;;5071507;28;20205;-61
2023/02/10 12:17:04;;;;;;;19.73;13.40;;;8.00;98.40;;;;;;5071115;28;20748;-62
2023/02/10 12:19:40;;;;;;;15.73;12.00;;;8.10;98.20;;;;;;5071728;28;20202;-63
2023/02/10 12:22:17;;;;;;;18.37;13.20;;;8.20;97.80;;;;;;5070484;28;20311;-60
2023/02/10 12:24:59;;;;;;;19.77;13.20;;;8.20;97.50;;;;;;5070604;28;20209;-61
2023/02/10 12:27:39;;;;;;;18.33;13.03;;;8.00;97.80;;;;;;5070359;28;20225;-64
2023/02/10 12:30:15;;;;;;;21.53;13.30;;;8.00;98.00;;;;;;5070275;28;20215;-64
2023/02/10 12:32:51;;;;;;;16.67;12.13;;;8.00;97.70;;;;;;5070404;28;20237;-61
2023/02/10 12:35:30;;;;;;;18.23;13.23;;;8.20;97.30;;;;;;5070615;28;20212;-64
2023/02/10 12:38:06;;;;;;;18.90;12.87;;;8.50;96.90;;;;;;5070000;28;20244;-61
2023/02/10 12:40:50;;;;;;;16.47;12.30;;;8.50;96.60;;;;;;5070593;28;20244;-61
2023/02/10 12:43:33;;;;;;;17.97;12.80;;;8.50;96.70;;;;;;5070170;28;20301;-62
2023/02/10 12:46:09;;;;;;;18.90;13.33;;;8.40;96.30;;;;;;5070103;28;20677;-62